createdAt,value
2018-09-14T00:02:08.793Z,6.07
2018-09-14T00:07:03.677Z,5.20
2018-09-14T00:11:58.500Z,5.43
2018-09-14T00:16:53.297Z,5.30
2018-09-14T00:21:48.110Z,5.03
2018-09-14T00:26:42.916Z,4.73
2018-09-14T00:31:37.737Z,4.00
2018-09-14T00:36:32.557Z,4.20
2018-09-14T00:41:27.358Z,4.17
2018-09-14T00:46:22.172Z,3.90
2018-09-14T00:51:16.961Z,3.97
2018-09-14T00:56:11.784Z,4.27
2018-09-14T01:01:06.625Z,4.10
2018-09-14T01:06:01.425Z,4.00
2018-09-14T01:10:56.213Z,4.20
2018-09-14T01:15:51.523Z,4.07
2018-09-14T01:20:46.345Z,4.23
2018-09-14T01:25:41.125Z,4.37
2018-09-14T01:30:35.915Z,4.97
2018-09-14T01:35:35.808Z,4.33
2018-09-14T01:40:30.581Z,4.43
2018-09-14T01:45:25.386Z,4.20
2018-09-14T01:50:20.169Z,4.30
2018-09-14T01:55:14.960Z,4.57
2018-09-14T02:00:09.906Z,4.30
2018-09-14T02:05:05.214Z,5.00
2018-09-14T02:10:00.000Z,4.80
2018-09-14T02:14:54.785Z,6.23
2018-09-14T02:19:49.594Z,5.87
2018-09-14T02:24:44.373Z,5.53
2018-09-14T02:29:39.417Z,6.10
2018-09-14T02:34:34.251Z,6.13
2018-09-14T02:39:29.043Z,5.90
2018-09-14T02:44:23.840Z,5.70
2018-09-14T02:49:18.646Z,5.83
2018-09-14T02:54:13.510Z,6.27
2018-09-14T02:59:08.285Z,6.60
2018-09-14T03:04:03.114Z,6.17
2018-09-14T03:08:57.908Z,5.37
2018-09-14T03:13:52.713Z,5.57
2018-09-14T03:18:47.570Z,5.83
2018-09-14T03:23:42.631Z,5.63
2018-09-14T03:28:37.429Z,5.73
2018-09-14T03:33:32.225Z,6.03
2018-09-14T03:38:27.018Z,5.87
2018-09-14T03:43:21.782Z,6.00
2018-09-14T03:48:16.549Z,5.70
2018-09-14T03:53:11.342Z,5.63
2018-09-14T03:58:06.323Z,5.87
2018-09-14T04:03:01.132Z,6.10
2018-09-14T04:07:56.174Z,6.57
2018-09-14T04:12:50.793Z,7.03
2018-09-14T04:17:45.627Z,6.43
2018-09-14T04:22:40.415Z,6.70
2018-09-14T04:27:35.220Z,6.23
2018-09-14T04:32:30.043Z,6.57
2018-09-14T04:37:24.822Z,7.20
2018-09-14T04:42:19.699Z,6.90
2018-09-14T04:47:14.506Z,7.17
2018-09-14T04:52:09.318Z,6.93
2018-09-14T04:57:04.281Z,7.33
2018-09-14T05:01:59.128Z,7.77
2018-09-14T05:06:53.966Z,7.60
2018-09-14T05:11:48.774Z,7.30
2018-09-14T05:16:43.580Z,7.67
2018-09-14T05:21:38.401Z,7.10
2018-09-14T05:26:33.241Z,6.27
2018-09-14T05:31:28.049Z,7.03
2018-09-14T05:36:22.849Z,7.00
2018-09-14T05:41:17.649Z,6.67
2018-09-14T05:46:12.429Z,6.73
2018-09-14T05:51:07.370Z,5.87
2018-09-14T05:56:02.199Z,5.30
2018-09-14T06:00:57.098Z,5.83
2018-09-14T06:05:51.940Z,5.03
2018-09-14T06:10:46.856Z,6.00
2018-09-14T06:15:41.670Z,5.37
2018-09-14T06:20:36.483Z,6.00
2018-09-14T06:25:31.342Z,5.27
2018-09-14T06:30:26.235Z,5.80
2018-09-14T06:35:21.182Z,5.63
2018-09-14T06:40:16.091Z,5.17
2018-09-14T06:45:11.032Z,5.60
2018-09-14T06:50:06.255Z,5.53
2018-09-14T06:55:01.070Z,5.43
2018-09-14T06:59:55.988Z,5.37
2018-09-14T07:04:50.909Z,5.60
2018-09-14T07:09:45.789Z,6.07
2018-09-14T07:14:40.765Z,5.20
2018-09-14T07:19:35.723Z,5.00
2018-09-14T07:24:30.881Z,5.60
2018-09-14T07:29:25.739Z,6.13
2018-09-14T07:34:20.787Z,5.53
2018-09-14T07:39:15.831Z,5.67
2018-09-14T07:44:10.874Z,5.47
2018-09-14T07:49:05.938Z,4.83
2018-09-14T07:54:01.040Z,5.23
2018-09-14T07:58:56.595Z,5.03
2018-09-14T08:03:51.655Z,4.90
2018-09-14T08:08:47.283Z,4.37
2018-09-14T08:13:42.249Z,4.73
2018-09-14T08:18:37.294Z,5.00
2018-09-14T08:23:32.321Z,4.20
2018-09-14T08:28:27.408Z,5.00
2018-09-14T08:33:22.443Z,4.90
2018-09-14T08:38:17.521Z,4.87
2018-09-14T08:43:12.493Z,5.40
2018-09-14T08:48:07.663Z,5.07
2018-09-14T08:53:02.887Z,5.10
2018-09-14T08:57:57.917Z,4.97
2018-09-14T09:02:53.914Z,4.40
2018-09-14T09:07:49.557Z,4.40
2018-09-14T09:12:44.901Z,5.03
2018-09-14T09:17:40.113Z,4.23
2018-09-14T09:22:35.273Z,4.20
2018-09-14T09:27:30.412Z,3.87
2018-09-14T09:32:25.522Z,4.40
2018-09-14T09:37:20.710Z,3.83
2018-09-14T09:42:15.758Z,3.53
2018-09-14T09:47:10.833Z,3.97
2018-09-14T09:52:06.037Z,3.50
2018-09-14T09:57:01.294Z,4.83
2018-09-14T10:02:01.349Z,4.77
2018-09-14T10:06:56.911Z,3.83
2018-09-14T10:11:52.080Z,3.60
2018-09-14T10:16:47.200Z,4.13
2018-09-14T10:21:42.354Z,3.70
2018-09-14T10:26:37.550Z,3.07
2018-09-14T10:31:32.606Z,3.67
2018-09-14T10:36:27.821Z,3.57
2018-09-14T10:41:22.884Z,4.03
2018-09-14T10:46:17.959Z,3.13
2018-09-14T10:51:12.954Z,3.20
2018-09-14T10:56:08.281Z,3.07
2018-09-14T11:01:03.489Z,2.87
2018-09-14T11:05:58.526Z,2.73
2018-09-14T11:10:53.625Z,2.87
2018-09-14T11:15:48.698Z,2.53
2018-09-14T11:20:43.830Z,2.40
2018-09-14T11:25:38.910Z,3.13
2018-09-14T11:30:33.882Z,3.40
2018-09-14T11:35:28.899Z,2.63
2018-09-14T11:40:23.891Z,2.93
2018-09-14T11:45:19.140Z,2.90
2018-09-14T11:50:14.077Z,2.80
2018-09-14T11:55:09.070Z,2.97
2018-09-14T12:00:04.938Z,3.17
2018-09-14T12:05:00.102Z,2.80
2018-09-14T12:09:55.134Z,2.50
2018-09-14T12:14:50.190Z,2.37
2018-09-14T12:19:45.049Z,1.98
2018-09-14T12:24:40.079Z,2.50
2018-09-14T12:29:35.046Z,2.90
2018-09-14T12:34:29.902Z,2.13
2018-09-14T12:39:24.909Z,2.60
2018-09-14T12:44:19.804Z,2.20
2018-09-14T12:49:14.693Z,2.20
2018-09-14T12:54:10.458Z,2.53
2018-09-14T12:59:05.394Z,2.00
2018-09-14T13:04:00.325Z,2.20
2018-09-14T13:08:55.265Z,2.40
2018-09-14T13:13:50.143Z,2.20
2018-09-14T13:18:45.027Z,2.00
2018-09-14T13:23:39.936Z,2.00
2018-09-14T13:28:34.843Z,2.30
2018-09-14T13:33:29.739Z,2.33
2018-09-14T13:38:24.674Z,2.10
2018-09-14T13:43:19.600Z,2.07
2018-09-14T13:48:14.675Z,2.10
2018-09-14T13:53:09.563Z,2.17
2018-09-14T13:58:04.463Z,2.27
2018-09-14T14:02:59.453Z,2.20
2018-09-14T14:07:54.402Z,2.50
2018-09-14T14:12:49.369Z,2.30
2018-09-14T14:17:44.388Z,2.03
2018-09-14T14:22:39.281Z,2.30
2018-09-14T14:27:34.225Z,2.10
2018-09-14T14:32:29.099Z,2.30
2018-09-14T14:37:24.010Z,2.13
2018-09-14T14:42:18.912Z,1.97
2018-09-14T14:47:13.826Z,2.30
2018-09-14T14:52:09.023Z,2.10
2018-09-14T14:57:03.910Z,2.30
2018-09-14T15:01:58.778Z,2.20
2018-09-14T15:06:53.847Z,2.40
2018-09-14T15:11:48.807Z,2.30
2018-09-14T15:16:43.691Z,2.40
2018-09-14T15:21:38.658Z,2.20
2018-09-14T15:26:34.036Z,2.40
2018-09-14T15:31:28.890Z,2.50
2018-09-14T15:36:23.825Z,2.60
2018-09-14T15:41:18.706Z,2.20
2018-09-14T15:46:14.301Z,2.23
2018-09-14T15:51:09.184Z,2.50
2018-09-14T15:56:04.112Z,2.23
2018-09-14T16:00:58.963Z,2.10
2018-09-14T16:05:53.876Z,2.33
2018-09-14T16:10:48.918Z,2.43
2018-09-14T16:15:43.781Z,2.20
2018-09-14T16:20:38.678Z,2.53
2018-09-14T16:25:33.526Z,2.00
2018-09-14T16:30:28.418Z,2.30
2018-09-14T16:35:23.330Z,2.57
2018-09-14T16:40:18.195Z,2.50
2018-09-14T16:45:13.142Z,2.60
2018-09-14T16:50:08.182Z,2.50
2018-09-14T16:55:03.106Z,2.47
2018-09-14T16:59:58.260Z,2.40
2018-09-14T17:04:53.142Z,2.60
2018-09-14T17:09:48.089Z,2.37
2018-09-14T17:14:43.045Z,2.50
2018-09-14T17:19:37.972Z,2.33
2018-09-14T17:24:32.915Z,2.37
2018-09-14T17:29:27.823Z,2.60
2018-09-14T17:34:22.681Z,2.73
2018-09-14T17:39:17.555Z,3.00
2018-09-14T17:44:12.469Z,2.83
2018-09-14T17:49:07.366Z,3.17
2018-09-14T17:54:03.905Z,2.93
2018-09-14T17:58:58.813Z,3.37
2018-09-14T18:03:53.729Z,3.03
2018-09-14T18:08:48.640Z,3.20
2018-09-14T18:13:43.570Z,3.20
2018-09-14T18:18:38.509Z,3.23
2018-09-14T18:23:33.398Z,3.50
2018-09-14T18:28:28.333Z,3.40
2018-09-14T18:33:23.268Z,3.50
2018-09-14T18:38:18.161Z,3.50
2018-09-14T18:43:13.102Z,3.27
2018-09-14T18:48:08.118Z,3.30
2018-09-14T18:53:03.131Z,3.10
2018-09-14T18:57:58.034Z,3.20
2018-09-14T19:02:53.043Z,3.17
2018-09-14T19:07:47.983Z,3.97
2018-09-14T19:12:42.879Z,3.53
2018-09-14T19:17:37.864Z,3.30
2018-09-14T19:22:32.741Z,3.73
2018-09-14T19:27:28.341Z,3.37
2018-09-14T19:32:23.390Z,3.67
2018-09-14T19:37:18.353Z,3.60
2018-09-14T19:42:13.281Z,3.27
2018-09-14T19:47:08.170Z,4.43
2018-09-14T19:52:03.128Z,3.73
2018-09-14T19:56:58.006Z,4.30
2018-09-14T20:01:53.327Z,4.07
2018-09-14T20:06:48.269Z,4.30
2018-09-14T20:11:43.770Z,3.90
2018-09-14T20:16:38.758Z,4.63
2018-09-14T20:21:33.650Z,4.30
2018-09-14T20:26:28.697Z,4.33
2018-09-14T20:31:23.700Z,4.50
2018-09-14T20:36:18.719Z,4.80
2018-09-14T20:41:13.634Z,4.17
2018-09-14T20:46:08.642Z,4.43
2018-09-14T20:51:03.536Z,4.37
2018-09-14T20:55:58.465Z,4.40
2018-09-14T21:00:53.361Z,4.70
2018-09-14T21:05:48.290Z,4.30
2018-09-14T21:10:43.251Z,4.37
2018-09-14T21:15:38.211Z,4.53
2018-09-14T21:20:33.957Z,4.97
2018-09-14T21:25:28.889Z,4.87
2018-09-14T21:30:23.793Z,4.73
2018-09-14T21:35:18.683Z,5.13
2018-09-14T21:40:13.625Z,5.50
2018-09-14T21:45:08.617Z,5.30
2018-09-14T21:50:03.599Z,5.60
2018-09-14T21:54:58.564Z,5.03
2018-09-14T21:59:53.879Z,5.10
2018-09-14T22:04:48.842Z,5.77
2018-09-14T22:09:43.750Z,5.77
2018-09-14T22:14:38.729Z,5.70
2018-09-14T22:19:33.580Z,6.07
2018-09-14T22:24:28.486Z,5.93
2018-09-14T22:29:23.432Z,6.10
2018-09-14T22:34:18.645Z,5.23
2018-09-14T22:39:14.262Z,5.20
2018-09-14T22:44:09.231Z,5.07
2018-09-14T22:49:04.262Z,4.93
2018-09-14T22:53:59.200Z,6.00
2018-09-14T22:58:54.155Z,5.73
2018-09-14T23:03:50.142Z,5.37
2018-09-14T23:08:45.143Z,5.27
2018-09-14T23:13:40.496Z,4.93
2018-09-14T23:18:35.389Z,5.40
2018-09-14T23:23:30.336Z,5.00
2018-09-14T23:28:25.218Z,5.13
2018-09-14T23:33:20.162Z,4.80
2018-09-14T23:38:15.326Z,5.20
2018-09-14T23:43:10.308Z,5.60
2018-09-14T23:48:05.210Z,5.70
2018-09-14T23:53:00.168Z,5.53
2018-09-14T23:57:54.988Z,5.70
